sensor_id;sensor_type;location;lat;lon;timestamp;temperature;humidity
25811;DHT22;13645;52.460;13.910;2022-09-01T00:02:28;15.00;99.90
25811;DHT22;13645;52.460;13.910;2022-09-01T00:04:55;15.00;99.90
25811;DHT22;13645;52.460;13.910;2022-09-01T00:07:26;15.00;99.90
25811;DHT22;13645;52.460;13.910;2022-09-01T00:09:56;15.00;99.90
25811;DHT22;13645;52.460;13.910;2022-09-01T00:12:24;15.00;99.90
25811;DHT22;13645;52.460;13.910;2022-09-01T00:14:52;15.00;99.90
25811;DHT22;13645;52.460;13.910;2022-09-01T00:17:19;15.00;99.90
25811;DHT22;13645;52.460;13.910;2022-09-01T00:19:46;15.00;99.90
25811;DHT22;13645;52.460;13.910;2022-09-01T00:22:13;15.00;99.90
25811;DHT22;13645;52.460;13.910;2022-09-01T00:24:40;15.00;99.90
25811;DHT22;13645;52.460;13.910;2022-09-01T00:27:07;15.00;99.90
25811;DHT22;13645;52.460;13.910;2022-09-01T00:29:34;15.00;99.90
25811;DHT22;13645;52.460;13.910;2022-09-01T00:32:01;15.00;99.90
25811;DHT22;13645;52.460;13.910;2022-09-01T00:34:28;15.00;99.90
25811;DHT22;13645;52.460;13.910;2022-09-01T00:36:55;15.10;99.90
25811;DHT22;13645;52.460;13.910;2022-09-01T00:39:22;15.10;99.90
25811;DHT22;13645;52.460;13.910;2022-09-01T00:41:49;15.00;99.90
25811;DHT22;13645;52.460;13.910;2022-09-01T00:44:21;15.00;99.90
25811;DHT22;13645;52.460;13.910;2022-09-01T00:46:51;15.00;99.90
25811;DHT22;13645;52.460;13.910;2022-09-01T00:52:24;15.00;99.90
25811;DHT22;13645;52.460;13.910;2022-09-01T00:54:57;15.00;99.90
25811;DHT22;13645;52.460;13.910;2022-09-01T00:57:25;15.00;99.90
25811;DHT22;13645;52.460;13.910;2022-09-01T01:00:00;15.00;99.90
25811;DHT22;13645;52.460;13.910;2022-09-01T01:02:27;15.00;99.90
25811;DHT22;13645;52.460;13.910;2022-09-01T01:04:54;15.00;99.90
25811;DHT22;13645;52.460;13.910;2022-09-01T01:07:26;15.00;99.90
25811;DHT22;13645;52.460;13.910;2022-09-01T01:09:54;15.00;99.90
25811;DHT22;13645;52.460;13.910;2022-09-01T01:12:21;15.00;99.90
25811;DHT22;13645;52.460;13.910;2022-09-01T01:14:49;15.00;99.90
25811;DHT22;13645;52.460;13.910;2022-09-01T01:17:21;15.00;99.90
25811;DHT22;13645;52.460;13.910;2022-09-01T01:19:53;15.00;99.90
25811;DHT22;13645;52.460;13.910;2022-09-01T01:25:41;15.00;99.90
25811;DHT22;13645;52.460;13.910;2022-09-01T01:28:17;14.90;99.90
25811;DHT22;13645;52.460;13.910;2022-09-01T01:30:54;14.90;99.90
25811;DHT22;13645;52.460;13.910;2022-09-01T01:33:26;14.90;99.90
25811;DHT22;13645;52.460;13.910;2022-09-01T01:35:53;14.90;99.90
25811;DHT22;13645;52.460;13.910;2022-09-01T01:38:23;14.90;99.90
25811;DHT22;13645;52.460;13.910;2022-09-01T01:40:51;14.90;99.90
25811;DHT22;13645;52.460;13.910;2022-09-01T01:43:22;14.90;99.90
25811;DHT22;13645;52.460;13.910;2022-09-01T01:45:51;14.90;99.90
25811;DHT22;13645;52.460;13.910;2022-09-01T01:48:20;14.90;99.90
25811;DHT22;13645;52.460;13.910;2022-09-01T01:50:51;14.80;99.90
25811;DHT22;13645;52.460;13.910;2022-09-01T01:53:18;14.80;99.90
25811;DHT22;13645;52.460;13.910;2022-09-01T01:55:47;14.70;99.90
25811;DHT22;13645;52.460;13.910;2022-09-01T01:58:20;14.70;99.90
25811;DHT22;13645;52.460;13.910;2022-09-01T02:00:49;14.70;99.90
25811;DHT22;13645;52.460;13.910;2022-09-01T02:03:19;14.60;99.90
25811;DHT22;13645;52.460;13.910;2022-09-01T02:05:49;14.50;99.90
25811;DHT22;13645;52.460;13.910;2022-09-01T02:08:17;14.40;99.90
25811;DHT22;13645;52.460;13.910;2022-09-01T02:10:48;14.40;99.90
25811;DHT22;13645;52.460;13.910;2022-09-01T02:13:17;14.30;99.90
25811;DHT22;13645;52.460;13.910;2022-09-01T02:15:48;14.20;99.90
25811;DHT22;13645;52.460;13.910;2022-09-01T02:18:28;14.10;99.90
25811;DHT22;13645;52.460;13.910;2022-09-01T02:20:56;14.10;99.90
25811;DHT22;13645;52.460;13.910;2022-09-01T02:23:24;14.00;99.90
25811;DHT22;13645;52.460;13.910;2022-09-01T02:25:54;13.90;99.90
25811;DHT22;13645;52.460;13.910;2022-09-01T02:28:42;13.90;99.90
25811;DHT22;13645;52.460;13.910;2022-09-01T02:31:10;13.90;99.90
25811;DHT22;13645;52.460;13.910;2022-09-01T02:33:39;13.80;99.90
25811;DHT22;13645;52.460;13.910;2022-09-01T02:36:11;13.80;99.90
25811;DHT22;13645;52.460;13.910;2022-09-01T02:38:41;13.80;99.90
25811;DHT22;13645;52.460;13.910;2022-09-01T02:41:14;13.70;99.90
25811;DHT22;13645;52.460;13.910;2022-09-01T02:43:41;13.70;99.90
25811;DHT22;13645;52.460;13.910;2022-09-01T02:46:12;13.70;99.90
25811;DHT22;13645;52.460;13.910;2022-09-01T02:48:43;13.60;99.90
25811;DHT22;13645;52.460;13.910;2022-09-01T02:51:14;13.60;99.90
25811;DHT22;13645;52.460;13.910;2022-09-01T02:53:43;13.50;99.90
25811;DHT22;13645;52.460;13.910;2022-09-01T02:56:11;13.50;99.90
25811;DHT22;13645;52.460;13.910;2022-09-01T02:58:42;13.40;99.90
25811;DHT22;13645;52.460;13.910;2022-09-01T03:03:46;13.30;99.90
25811;DHT22;13645;52.460;13.910;2022-09-01T03:06:13;13.30;99.90
25811;DHT22;13645;52.460;13.910;2022-09-01T03:08:40;13.20;99.90
25811;DHT22;13645;52.460;13.910;2022-09-01T03:11:07;13.20;99.90
25811;DHT22;13645;52.460;13.910;2022-09-01T03:13:40;13.10;99.90
25811;DHT22;13645;52.460;13.910;2022-09-01T03:16:08;13.20;99.90
25811;DHT22;13645;52.460;13.910;2022-09-01T03:18:35;13.10;99.90
25811;DHT22;13645;52.460;13.910;2022-09-01T03:21:03;13.10;99.90
25811;DHT22;13645;52.460;13.910;2022-09-01T03:23:31;13.00;99.90
25811;DHT22;13645;52.460;13.910;2022-09-01T03:25:59;13.00;99.90
25811;DHT22;13645;52.460;13.910;2022-09-01T03:28:26;12.90;99.90
25811;DHT22;13645;52.460;13.910;2022-09-01T03:30:55;12.90;99.90
25811;DHT22;13645;52.460;13.910;2022-09-01T03:33:23;12.80;99.90
25811;DHT22;13645;52.460;13.910;2022-09-01T03:35:51;12.70;99.90
25811;DHT22;13645;52.460;13.910;2022-09-01T03:38:18;12.70;99.90
25811;DHT22;13645;52.460;13.910;2022-09-01T03:40:57;12.60;99.90
25811;DHT22;13645;52.460;13.910;2022-09-01T03:43:31;12.60;99.90
25811;DHT22;13645;52.460;13.910;2022-09-01T03:46:02;12.60;99.90
25811;DHT22;13645;52.460;13.910;2022-09-01T03:48:29;12.50;99.90
25811;DHT22;13645;52.460;13.910;2022-09-01T03:50:58;12.50;99.90
25811;DHT22;13645;52.460;13.910;2022-09-01T03:53:31;12.40;99.90
25811;DHT22;13645;52.460;13.910;2022-09-01T03:56:04;12.40;99.90
25811;DHT22;13645;52.460;13.910;2022-09-01T03:58:31;12.30;99.90
25811;DHT22;13645;52.460;13.910;2022-09-01T04:00:59;12.30;99.90
25811;DHT22;13645;52.460;13.910;2022-09-01T04:03:31;12.20;99.90
25811;DHT22;13645;52.460;13.910;2022-09-01T04:06:02;12.20;99.90
25811;DHT22;13645;52.460;13.910;2022-09-01T04:08:29;12.20;99.90
25811;DHT22;13645;52.460;13.910;2022-09-01T04:11:01;12.20;99.90
25811;DHT22;13645;52.460;13.910;2022-09-01T04:13:38;12.10;99.90
25811;DHT22;13645;52.460;13.910;2022-09-01T04:16:05;12.10;99.90
25811;DHT22;13645;52.460;13.910;2022-09-01T04:18:52;12.10;99.90
25811;DHT22;13645;52.460;13.910;2022-09-01T04:21:18;12.00;99.90
25811;DHT22;13645;52.460;13.910;2022-09-01T04:23:45;12.00;99.90
25811;DHT22;13645;52.460;13.910;2022-09-01T04:26:13;12.00;99.90
25811;DHT22;13645;52.460;13.910;2022-09-01T04:28:47;12.00;99.90
25811;DHT22;13645;52.460;13.910;2022-09-01T04:31:17;12.00;99.90
25811;DHT22;13645;52.460;13.910;2022-09-01T04:33:47;12.00;99.90
25811;DHT22;13645;52.460;13.910;2022-09-01T04:36:23;12.00;99.90
25811;DHT22;13645;52.460;13.910;2022-09-01T04:38:54;12.00;99.90
25811;DHT22;13645;52.460;13.910;2022-09-01T04:41:24;12.00;99.90
25811;DHT22;13645;52.460;13.910;2022-09-01T04:43:52;12.00;99.90
25811;DHT22;13645;52.460;13.910;2022-09-01T04:46:23;12.00;99.90
25811;DHT22;13645;52.460;13.910;2022-09-01T04:48:52;11.90;99.90
25811;DHT22;13645;52.460;13.910;2022-09-01T04:51:19;12.00;99.90
25811;DHT22;13645;52.460;13.910;2022-09-01T04:53:46;12.00;99.90
25811;DHT22;13645;52.460;13.910;2022-09-01T04:56:16;12.00;99.90
25811;DHT22;13645;52.460;13.910;2022-09-01T04:58:49;12.00;99.90
25811;DHT22;13645;52.460;13.910;2022-09-01T05:01:19;12.00;99.90
25811;DHT22;13645;52.460;13.910;2022-09-01T05:03:47;12.00;99.90
25811;DHT22;13645;52.460;13.910;2022-09-01T05:06:22;12.10;99.90
25811;DHT22;13645;52.460;13.910;2022-09-01T05:08:49;12.10;99.90
25811;DHT22;13645;52.460;13.910;2022-09-01T05:11:17;12.10;99.90
25811;DHT22;13645;52.460;13.910;2022-09-01T05:13:49;12.20;99.90
25811;DHT22;13645;52.460;13.910;2022-09-01T05:16:18;12.20;99.90
25811;DHT22;13645;52.460;13.910;2022-09-01T05:18:52;12.20;99.90
25811;DHT22;13645;52.460;13.910;2022-09-01T05:21:23;12.30;99.90
25811;DHT22;13645;52.460;13.910;2022-09-01T05:23:57;12.40;99.90
25811;DHT22;13645;52.460;13.910;2022-09-01T05:26:30;12.40;99.90
25811;DHT22;13645;52.460;13.910;2022-09-01T05:29:00;12.40;99.90
25811;DHT22;13645;52.460;13.910;2022-09-01T05:31:28;12.50;99.90
25811;DHT22;13645;52.460;13.910;2022-09-01T05:34:04;12.60;99.90
25811;DHT22;13645;52.460;13.910;2022-09-01T05:36:37;12.60;99.90
25811;DHT22;13645;52.460;13.910;2022-09-01T05:39:06;12.70;99.90
25811;DHT22;13645;52.460;13.910;2022-09-01T05:41:38;12.80;99.90
25811;DHT22;13645;52.460;13.910;2022-09-01T05:44:07;12.80;99.90
25811;DHT22;13645;52.460;13.910;2022-09-01T05:46:37;12.90;99.90
25811;DHT22;13645;52.460;13.910;2022-09-01T05:49:06;12.90;99.90
25811;DHT22;13645;52.460;13.910;2022-09-01T05:51:42;13.00;99.90
25811;DHT22;13645;52.460;13.910;2022-09-01T05:54:17;13.10;99.90
25811;DHT22;13645;52.460;13.910;2022-09-01T05:56:46;13.10;99.90
25811;DHT22;13645;52.460;13.910;2022-09-01T05:59:14;13.20;99.90
25811;DHT22;13645;52.460;13.910;2022-09-01T06:01:51;13.20;99.90
25811;DHT22;13645;52.460;13.910;2022-09-01T06:04:19;13.30;99.90
25811;DHT22;13645;52.460;13.910;2022-09-01T06:06:47;13.30;99.90
25811;DHT22;13645;52.460;13.910;2022-09-01T06:09:36;13.40;99.90
25811;DHT22;13645;52.460;13.910;2022-09-01T06:12:04;13.50;99.90
25811;DHT22;13645;52.460;13.910;2022-09-01T06:14:32;13.60;99.90
25811;DHT22;13645;52.460;13.910;2022-09-01T06:16:59;13.60;99.90
25811;DHT22;13645;52.460;13.910;2022-09-01T06:19:26;13.70;99.90
25811;DHT22;13645;52.460;13.910;2022-09-01T06:22:03;13.70;99.90
25811;DHT22;13645;52.460;13.910;2022-09-01T06:24:30;13.90;99.90
25811;DHT22;13645;52.460;13.910;2022-09-01T06:26:57;14.00;99.90
25811;DHT22;13645;52.460;13.910;2022-09-01T06:29:25;14.10;99.90
25811;DHT22;13645;52.460;13.910;2022-09-01T06:31:51;14.10;99.90
25811;DHT22;13645;52.460;13.910;2022-09-01T06:34:18;14.30;99.90
25811;DHT22;13645;52.460;13.910;2022-09-01T06:36:47;14.40;99.90
25811;DHT22;13645;52.460;13.910;2022-09-01T06:39:15;14.50;99.90
25811;DHT22;13645;52.460;13.910;2022-09-01T06:41:49;14.50;99.90
25811;DHT22;13645;52.460;13.910;2022-09-01T06:44:19;14.60;99.90
25811;DHT22;13645;52.460;13.910;2022-09-01T06:46:49;14.70;99.90
25811;DHT22;13645;52.460;13.910;2022-09-01T06:49:18;14.70;99.90
25811;DHT22;13645;52.460;13.910;2022-09-01T06:51:47;14.90;99.90
25811;DHT22;13645;52.460;13.910;2022-09-01T06:54:15;15.00;99.90
25811;DHT22;13645;52.460;13.910;2022-09-01T06:56:46;15.10;99.90
25811;DHT22;13645;52.460;13.910;2022-09-01T06:59:18;15.30;99.90
25811;DHT22;13645;52.460;13.910;2022-09-01T07:01:45;15.50;99.90
25811;DHT22;13645;52.460;13.910;2022-09-01T07:04:14;15.80;99.90
25811;DHT22;13645;52.460;13.910;2022-09-01T07:06:47;16.20;99.90
25811;DHT22;13645;52.460;13.910;2022-09-01T07:09:26;16.70;99.90
25811;DHT22;13645;52.460;13.910;2022-09-01T07:12:14;17.20;99.90
25811;DHT22;13645;52.460;13.910;2022-09-01T07:14:54;17.70;99.90
25811;DHT22;13645;52.460;13.910;2022-09-01T07:17:41;18.20;99.90
25811;DHT22;13645;52.460;13.910;2022-09-01T07:20:09;18.70;99.90
25811;DHT22;13645;52.460;13.910;2022-09-01T07:22:54;19.20;99.90
25811;DHT22;13645;52.460;13.910;2022-09-01T07:25:31;19.70;99.90
25811;DHT22;13645;52.460;13.910;2022-09-01T07:28:21;20.00;99.90
25811;DHT22;13645;52.460;13.910;2022-09-01T07:31:27;20.20;99.90
25811;DHT22;13645;52.460;13.910;2022-09-01T07:34:14;20.60;99.90
25811;DHT22;13645;52.460;13.910;2022-09-01T07:37:03;21.00;99.90
25811;DHT22;13645;52.460;13.910;2022-09-01T07:39:49;21.40;99.90
25811;DHT22;13645;52.460;13.910;2022-09-01T07:42:18;21.60;99.90
25811;DHT22;13645;52.460;13.910;2022-09-01T07:45:10;21.70;99.90
25811;DHT22;13645;52.460;13.910;2022-09-01T07:47:55;22.10;99.90
25811;DHT22;13645;52.460;13.910;2022-09-01T07:50:22;22.30;99.90
25811;DHT22;13645;52.460;13.910;2022-09-01T07:53:13;22.50;99.90
25811;DHT22;13645;52.460;13.910;2022-09-01T07:55:45;22.80;99.90
25811;DHT22;13645;52.460;13.910;2022-09-01T07:58:13;22.90;99.90
25811;DHT22;13645;52.460;13.910;2022-09-01T08:00:40;23.10;99.90
25811;DHT22;13645;52.460;13.910;2022-09-01T08:03:12;23.10;99.90
25811;DHT22;13645;52.460;13.910;2022-09-01T08:05:40;23.30;99.90
25811;DHT22;13645;52.460;13.910;2022-09-01T08:08:06;23.60;99.90
25811;DHT22;13645;52.460;13.910;2022-09-01T08:10:53;23.80;99.90
25811;DHT22;13645;52.460;13.910;2022-09-01T08:13:30;24.00;99.90
25811;DHT22;13645;52.460;13.910;2022-09-01T08:16:08;24.10;99.90
25811;DHT22;13645;52.460;13.910;2022-09-01T08:18:44;24.20;99.90
25811;DHT22;13645;52.460;13.910;2022-09-01T08:21:16;24.40;99.90
25811;DHT22;13645;52.460;13.910;2022-09-01T08:23:43;24.50;99.90
25811;DHT22;13645;52.460;13.910;2022-09-01T08:26:18;24.70;99.90
25811;DHT22;13645;52.460;13.910;2022-09-01T08:28:45;24.80;99.90
25811;DHT22;13645;52.460;13.910;2022-09-01T08:31:22;24.90;99.90
25811;DHT22;13645;52.460;13.910;2022-09-01T08:33:50;24.90;99.90
25811;DHT22;13645;52.460;13.910;2022-09-01T08:36:17;25.10;99.90
25811;DHT22;13645;52.460;13.910;2022-09-01T08:38:51;25.20;99.90
25811;DHT22;13645;52.460;13.910;2022-09-01T08:41:40;25.40;99.90
25811;DHT22;13645;52.460;13.910;2022-09-01T08:44:24;25.40;99.90
25811;DHT22;13645;52.460;13.910;2022-09-01T08:46:58;25.60;99.90
25811;DHT22;13645;52.460;13.910;2022-09-01T08:49:26;25.60;99.90
25811;DHT22;13645;52.460;13.910;2022-09-01T08:52:05;25.60;99.90
25811;DHT22;13645;52.460;13.910;2022-09-01T08:54:36;25.60;99.90
25811;DHT22;13645;52.460;13.910;2022-09-01T08:57:10;25.60;99.90
25811;DHT22;13645;52.460;13.910;2022-09-01T08:59:39;25.90;99.90
25811;DHT22;13645;52.460;13.910;2022-09-01T09:05:22;26.10;99.90
25811;DHT22;13645;52.460;13.910;2022-09-01T09:10:59;26.30;99.90
25811;DHT22;13645;52.460;13.910;2022-09-01T09:16:09;26.60;99.90
25811;DHT22;13645;52.460;13.910;2022-09-01T09:18:56;26.50;99.90
25811;DHT22;13645;52.460;13.910;2022-09-01T09:21:40;26.50;99.90
25811;DHT22;13645;52.460;13.910;2022-09-01T09:27:26;26.50;99.90
25811;DHT22;13645;52.460;13.910;2022-09-01T09:29:58;26.80;99.90
25811;DHT22;13645;52.460;13.910;2022-09-01T09:32:49;26.70;99.90
25811;DHT22;13645;52.460;13.910;2022-09-01T09:35:41;26.80;99.90
25811;DHT22;13645;52.460;13.910;2022-09-01T09:41:05;27.10;99.90
25811;DHT22;13645;52.460;13.910;2022-09-01T09:43:58;26.80;98.10
25811;DHT22;13645;52.460;13.910;2022-09-01T09:46:35;26.80;99.90
25811;DHT22;13645;52.460;13.910;2022-09-01T09:49:14;27.00;99.90
25811;DHT22;13645;52.460;13.910;2022-09-01T09:51:45;27.00;99.90
25811;DHT22;13645;52.460;13.910;2022-09-01T09:54:24;27.10;99.90
25811;DHT22;13645;52.460;13.910;2022-09-01T09:57:21;27.00;98.90
25811;DHT22;13645;52.460;13.910;2022-09-01T09:59:56;27.00;99.90
25811;DHT22;13645;52.460;13.910;2022-09-01T10:02:31;26.70;97.80
25811;DHT22;13645;52.460;13.910;2022-09-01T10:05:41;26.60;96.50
25811;DHT22;13645;52.460;13.910;2022-09-01T10:11:00;25.60;98.00
25811;DHT22;13645;52.460;13.910;2022-09-01T10:13:28;24.90;98.80
25811;DHT22;13645;52.460;13.910;2022-09-01T10:16:01;24.60;99.90
25811;DHT22;13645;52.460;13.910;2022-09-01T10:18:41;24.40;99.90
25811;DHT22;13645;52.460;13.910;2022-09-01T10:21:22;24.40;99.50
25811;DHT22;13645;52.460;13.910;2022-09-01T10:23:52;24.30;99.90
25811;DHT22;13645;52.460;13.910;2022-09-01T10:26:36;23.90;99.90
25811;DHT22;13645;52.460;13.910;2022-09-01T10:29:36;23.70;99.90
25811;DHT22;13645;52.460;13.910;2022-09-01T10:32:19;23.60;99.90
25811;DHT22;13645;52.460;13.910;2022-09-01T10:35:03;23.50;99.90
25811;DHT22;13645;52.460;13.910;2022-09-01T10:37:30;23.60;99.90
25811;DHT22;13645;52.460;13.910;2022-09-01T10:40:33;23.60;99.90
25811;DHT22;13645;52.460;13.910;2022-09-01T10:49:55;24.10;99.90
25811;DHT22;13645;52.460;13.910;2022-09-01T10:51:58;24.40;99.90
25811;DHT22;13645;52.460;13.910;2022-09-01T10:59:53;24.70;99.90
25811;DHT22;13645;52.460;13.910;2022-09-01T11:02:24;24.20;99.90
25811;DHT22;13645;52.460;13.910;2022-09-01T11:07:32;24.40;99.90
25811;DHT22;13645;52.460;13.910;2022-09-01T11:10:38;25.30;99.90
25811;DHT22;13645;52.460;13.910;2022-09-01T11:24:44;23.90;99.90
25811;DHT22;13645;52.460;13.910;2022-09-01T11:33:44;23.40;99.90
25811;DHT22;13645;52.460;13.910;2022-09-01T11:39:04;23.30;99.90
25811;DHT22;13645;52.460;13.910;2022-09-01T11:41:43;23.40;99.90
25811;DHT22;13645;52.460;13.910;2022-09-01T11:46:46;24.10;99.90
25811;DHT22;13645;52.460;13.910;2022-09-01T11:49:31;24.40;99.90
25811;DHT22;13645;52.460;13.910;2022-09-01T11:51:59;24.50;99.90
25811;DHT22;13645;52.460;13.910;2022-09-01T11:54:29;24.10;99.90
25811;DHT22;13645;52.460;13.910;2022-09-01T11:57:16;23.80;99.90
25811;DHT22;13645;52.460;13.910;2022-09-01T11:59:43;23.40;99.90
25811;DHT22;13645;52.460;13.910;2022-09-01T12:05:33;22.90;99.90
25811;DHT22;13645;52.460;13.910;2022-09-01T12:08:18;22.60;99.90
25811;DHT22;13645;52.460;13.910;2022-09-01T12:10:50;22.50;99.90
25811;DHT22;13645;52.460;13.910;2022-09-01T12:13:21;22.40;99.90
25811;DHT22;13645;52.460;13.910;2022-09-01T12:16:09;22.30;99.90
25811;DHT22;13645;52.460;13.910;2022-09-01T12:18:46;22.20;99.90
25811;DHT22;13645;52.460;13.910;2022-09-01T12:23:52;22.30;99.90
25811;DHT22;13645;52.460;13.910;2022-09-01T12:26:44;22.20;99.90
25811;DHT22;13645;52.460;13.910;2022-09-01T12:29:52;22.20;99.90
25811;DHT22;13645;52.460;13.910;2022-09-01T12:32:19;22.20;99.90
25811;DHT22;13645;52.460;13.910;2022-09-01T12:35:01;22.20;99.90
25811;DHT22;13645;52.460;13.910;2022-09-01T12:37:36;22.10;98.00
25811;DHT22;13645;52.460;13.910;2022-09-01T12:40:04;22.10;99.90
25811;DHT22;13645;52.460;13.910;2022-09-01T12:42:32;22.00;99.30
25811;DHT22;13645;52.460;13.910;2022-09-01T12:45:09;22.00;99.80
25811;DHT22;13645;52.460;13.910;2022-09-01T12:52:46;22.10;99.20
25811;DHT22;13645;52.460;13.910;2022-09-01T12:55:21;22.20;99.80
25811;DHT22;13645;52.460;13.910;2022-09-01T12:58:08;22.20;99.90
25811;DHT22;13645;52.460;13.910;2022-09-01T13:00:54;22.30;98.30
25811;DHT22;13645;52.460;13.910;2022-09-01T13:03:22;22.40;98.10
25811;DHT22;13645;52.460;13.910;2022-09-01T13:05:53;22.50;99.90
25811;DHT22;13645;52.460;13.910;2022-09-01T13:08:24;22.50;99.90
25811;DHT22;13645;52.460;13.910;2022-09-01T13:13:28;22.70;99.90
25811;DHT22;13645;52.460;13.910;2022-09-01T13:15:58;22.60;99.40
25811;DHT22;13645;52.460;13.910;2022-09-01T13:18:40;22.70;99.90
25811;DHT22;13645;52.460;13.910;2022-09-01T13:21:27;22.70;99.90
25811;DHT22;13645;52.460;13.910;2022-09-01T13:23:56;22.70;99.90
25811;DHT22;13645;52.460;13.910;2022-09-01T13:26:22;22.80;99.90
25811;DHT22;13645;52.460;13.910;2022-09-01T13:28:49;22.90;99.90
25811;DHT22;13645;52.460;13.910;2022-09-01T13:31:17;22.90;99.90
25811;DHT22;13645;52.460;13.910;2022-09-01T13:34:01;22.90;99.90
25811;DHT22;13645;52.460;13.910;2022-09-01T13:36:36;22.90;99.90
25811;DHT22;13645;52.460;13.910;2022-09-01T13:39:17;22.90;99.90
25811;DHT22;13645;52.460;13.910;2022-09-01T13:41:46;22.90;99.90
25811;DHT22;13645;52.460;13.910;2022-09-01T13:44:16;22.90;99.90
25811;DHT22;13645;52.460;13.910;2022-09-01T13:46:44;22.80;99.90
25811;DHT22;13645;52.460;13.910;2022-09-01T13:49:31;22.80;99.90
25811;DHT22;13645;52.460;13.910;2022-09-01T13:52:18;22.80;99.90
25811;DHT22;13645;52.460;13.910;2022-09-01T13:54:45;22.80;98.90
25811;DHT22;13645;52.460;13.910;2022-09-01T13:57:13;22.70;99.90
25811;DHT22;13645;52.460;13.910;2022-09-01T13:59:41;22.70;99.90
25811;DHT22;13645;52.460;13.910;2022-09-01T14:02:09;22.70;99.90
25811;DHT22;13645;52.460;13.910;2022-09-01T14:04:36;22.60;99.90
25811;DHT22;13645;52.460;13.910;2022-09-01T14:07:03;22.50;99.90
25811;DHT22;13645;52.460;13.910;2022-09-01T14:09:30;22.50;99.90
25811;DHT22;13645;52.460;13.910;2022-09-01T14:11:57;22.40;99.90
25811;DHT22;13645;52.460;13.910;2022-09-01T14:14:24;22.40;99.90
25811;DHT22;13645;52.460;13.910;2022-09-01T14:16:52;22.30;99.90
25811;DHT22;13645;52.460;13.910;2022-09-01T14:19:19;22.20;99.70
25811;DHT22;13645;52.460;13.910;2022-09-01T14:21:46;22.20;99.40
25811;DHT22;13645;52.460;13.910;2022-09-01T14:24:13;22.20;99.90
25811;DHT22;13645;52.460;13.910;2022-09-01T14:26:40;22.40;99.90
25811;DHT22;13645;52.460;13.910;2022-09-01T14:29:08;22.70;99.90
25811;DHT22;13645;52.460;13.910;2022-09-01T14:31:34;23.20;99.90
25811;DHT22;13645;52.460;13.910;2022-09-01T14:34:03;23.80;99.90
25811;DHT22;13645;52.460;13.910;2022-09-01T14:36:30;24.00;99.90
25811;DHT22;13645;52.460;13.910;2022-09-01T14:38:57;23.80;99.90
25811;DHT22;13645;52.460;13.910;2022-09-01T14:41:25;23.60;99.90
25811;DHT22;13645;52.460;13.910;2022-09-01T14:43:53;23.40;99.90
25811;DHT22;13645;52.460;13.910;2022-09-01T14:46:25;23.20;99.90
25811;DHT22;13645;52.460;13.910;2022-09-01T14:48:52;23.10;99.90
25811;DHT22;13645;52.460;13.910;2022-09-01T14:51:23;22.90;99.90
25811;DHT22;13645;52.460;13.910;2022-09-01T14:53:52;22.80;99.90
25811;DHT22;13645;52.460;13.910;2022-09-01T14:56:20;22.70;99.90
25811;DHT22;13645;52.460;13.910;2022-09-01T14:58:47;22.60;99.90
25811;DHT22;13645;52.460;13.910;2022-09-01T15:01:16;22.50;99.90
25811;DHT22;13645;52.460;13.910;2022-09-01T15:04:00;22.50;99.90
25811;DHT22;13645;52.460;13.910;2022-09-01T15:06:27;22.40;99.90
25811;DHT22;13645;52.460;13.910;2022-09-01T15:08:54;22.30;99.90
25811;DHT22;13645;52.460;13.910;2022-09-01T15:11:20;22.20;99.90
25811;DHT22;13645;52.460;13.910;2022-09-01T15:14:11;22.00;99.90
25811;DHT22;13645;52.460;13.910;2022-09-01T15:17:02;21.90;99.90
25811;DHT22;13645;52.460;13.910;2022-09-01T15:19:53;21.80;99.90
25811;DHT22;13645;52.460;13.910;2022-09-01T16:22:32;20.40;99.90
25811;DHT22;13645;52.460;13.910;2022-09-01T16:25:10;20.30;99.90
25811;DHT22;13645;52.460;13.910;2022-09-01T16:27:41;20.30;99.90
25811;DHT22;13645;52.460;13.910;2022-09-01T16:30:11;20.20;99.90
25811;DHT22;13645;52.460;13.910;2022-09-01T16:32:44;20.20;99.90
25811;DHT22;13645;52.460;13.910;2022-09-01T16:35:12;20.10;99.90
25811;DHT22;13645;52.460;13.910;2022-09-01T16:40:55;19.90;99.90
25811;DHT22;13645;52.460;13.910;2022-09-01T16:43:34;19.80;99.90
25811;DHT22;13645;52.460;13.910;2022-09-01T16:46:19;19.80;99.90
25811;DHT22;13645;52.460;13.910;2022-09-01T16:52:12;19.60;99.90
25811;DHT22;13645;52.460;13.910;2022-09-01T16:58:06;19.50;99.90
25811;DHT22;13645;52.460;13.910;2022-09-01T17:07:33;19.20;99.90
25811;DHT22;13645;52.460;13.910;2022-09-01T17:09:33;19.10;99.90
25811;DHT22;13645;52.460;13.910;2022-09-01T17:12:21;19.00;99.90
25811;DHT22;13645;52.460;13.910;2022-09-01T17:14:58;19.00;99.90
25811;DHT22;13645;52.460;13.910;2022-09-01T17:17:38;18.90;99.90
25811;DHT22;13645;52.460;13.910;2022-09-01T17:20:07;18.80;99.90
25811;DHT22;13645;52.460;13.910;2022-09-01T17:22:35;18.70;99.90
25811;DHT22;13645;52.460;13.910;2022-09-01T17:25:09;18.70;99.90
25811;DHT22;13645;52.460;13.910;2022-09-01T17:28:05;18.60;99.90
25811;DHT22;13645;52.460;13.910;2022-09-01T17:30:35;18.50;99.90
25811;DHT22;13645;52.460;13.910;2022-09-01T17:33:26;18.40;99.90
25811;DHT22;13645;52.460;13.910;2022-09-01T17:38:58;18.30;99.90
25811;DHT22;13645;52.460;13.910;2022-09-01T17:47:09;17.90;99.90
25811;DHT22;13645;52.460;13.910;2022-09-01T17:53:07;17.60;99.90
25811;DHT22;13645;52.460;13.910;2022-09-01T17:55:52;17.50;99.90
25811;DHT22;13645;52.460;13.910;2022-09-01T18:01:29;17.20;99.90
25811;DHT22;13645;52.460;13.910;2022-09-01T18:09:53;16.90;99.90
25811;DHT22;13645;52.460;13.910;2022-09-01T18:12:28;16.90;99.90
25811;DHT22;13645;52.460;13.910;2022-09-01T18:15:05;16.70;99.90
25811;DHT22;13645;52.460;13.910;2022-09-01T18:18:09;16.60;99.90
25811;DHT22;13645;52.460;13.910;2022-09-01T18:20:44;16.60;99.90
25811;DHT22;13645;52.460;13.910;2022-09-01T18:23:16;16.50;99.90
25811;DHT22;13645;52.460;13.910;2022-09-01T18:25:51;16.50;99.90
25811;DHT22;13645;52.460;13.910;2022-09-01T18:28:20;16.40;99.90
25811;DHT22;13645;52.460;13.910;2022-09-01T18:33:47;16.40;99.90
25811;DHT22;13645;52.460;13.910;2022-09-01T18:36:39;16.30;99.90
25811;DHT22;13645;52.460;13.910;2022-09-01T18:42:18;16.10;99.90
25811;DHT22;13645;52.460;13.910;2022-09-01T18:45:01;15.90;99.90
25811;DHT22;13645;52.460;13.910;2022-09-01T18:50:32;15.80;99.90
25811;DHT22;13645;52.460;13.910;2022-09-01T18:59:12;15.50;99.90
25811;DHT22;13645;52.460;13.910;2022-09-01T19:04:46;15.40;99.90
25811;DHT22;13645;52.460;13.910;2022-09-01T19:07:35;15.30;99.90